createdAt,value
2019-04-06T09:22:50.090Z,0.160
2019-04-06T09:24:50.797Z,0.194
2019-04-06T09:26:50.394Z,0.182
2019-04-06T09:28:50.958Z,0.120
2019-04-06T09:30:50.272Z,0.148
2019-04-06T09:32:50.722Z,0.154
2019-04-06T09:34:50.202Z,0.131
2019-04-06T09:36:51.083Z,0.182
2019-04-06T09:38:50.354Z,0.182
2019-04-06T09:40:51.171Z,0.211
2019-04-06T09:42:50.508Z,0.114
2019-04-06T09:44:50.732Z,0.234
2019-04-06T09:46:50.468Z,0.108
2019-04-06T09:48:50.738Z,0.160
2019-04-06T09:50:50.011Z,0.148
2019-04-06T09:52:50.505Z,0.137
2019-04-06T09:54:50.983Z,0.125
2019-04-06T09:56:50.556Z,0.148
2019-04-06T09:58:50.718Z,0.160
2019-04-06T10:00:50.646Z,0.148
2019-04-06T10:02:50.600Z,0.148
2019-04-06T10:04:50.173Z,0.188
2019-04-06T10:06:50.784Z,0.137
2019-04-06T10:08:50.125Z,0.171
2019-04-06T10:10:50.935Z,0.137
2019-04-06T10:12:50.436Z,0.114
2019-04-06T10:14:50.297Z,0.182
2019-04-06T10:16:49.951Z,0.097
2019-04-06T10:18:50.531Z,0.205
2019-04-06T10:20:49.991Z,0.091
2019-04-06T10:22:50.217Z,0.154
2019-04-06T10:24:50.464Z,0.165
2019-04-06T10:26:50.720Z,0.108
2019-04-06T10:28:51.246Z,0.103
2019-04-06T10:30:50.541Z,0.211
2019-04-06T10:32:51.123Z,0.108
2019-04-06T10:34:50.577Z,0.120
2019-04-06T10:36:50.571Z,0.131
2019-04-06T10:38:50.029Z,0.143
2019-04-06T10:40:50.283Z,0.182
2019-04-06T10:42:50.772Z,0.165
2019-04-06T10:44:50.429Z,0.086
2019-04-06T10:46:49.898Z,0.165
2019-04-06T10:48:50.120Z,0.154
2019-04-06T10:50:50.691Z,0.143
2019-04-06T10:52:50.250Z,0.165
2019-04-06T10:54:50.476Z,0.171
2019-04-06T10:56:49.933Z,0.103
2019-04-06T10:58:50.113Z,0.160
2019-04-06T11:00:50.543Z,0.171
2019-04-06T11:02:50.111Z,0.160
2019-04-06T11:04:50.683Z,0.143
2019-04-06T11:06:50.274Z,0.131
2019-04-06T11:08:50.420Z,0.114
2019-04-06T11:10:50.428Z,0.125
2019-04-06T11:12:50.516Z,0.103
2019-04-06T11:14:50.531Z,0.217
2019-04-06T11:16:49.962Z,0.148
2019-04-06T11:18:50.901Z,0.182
2019-04-06T11:20:50.146Z,0.148
2019-04-06T11:22:50.477Z,0.154
2019-04-06T11:24:50.896Z,0.120
2019-04-06T11:26:50.355Z,0.137
2019-04-06T11:28:50.930Z,0.131
2019-04-06T11:30:50.566Z,0.125
2019-04-06T11:32:50.205Z,0.114
2019-04-06T11:34:50.997Z,0.177
2019-04-06T11:36:50.393Z,0.154
2019-04-06T11:38:49.772Z,0.131
2019-04-06T11:40:49.946Z,0.125
2019-04-06T11:42:50.520Z,0.148
2019-04-06T11:44:50.986Z,0.154
2019-04-06T11:46:50.607Z,0.125
2019-04-06T11:48:50.155Z,0.182
2019-04-06T11:50:50.808Z,0.160
2019-04-06T11:52:50.395Z,0.154
2019-04-06T11:54:50.318Z,0.108
2019-04-06T11:56:50.520Z,0.182
2019-04-06T11:58:50.655Z,0.154
2019-04-06T12:00:49.851Z,0.137
2019-04-06T12:02:50.530Z,0.148
2019-04-06T12:04:50.445Z,0.137
2019-04-06T12:06:50.555Z,0.188
2019-04-06T12:08:50.727Z,0.120
2019-04-06T12:10:50.253Z,0.205
2019-04-06T12:12:49.833Z,0.137
2019-04-06T12:14:50.760Z,0.148
2019-04-06T12:16:50.186Z,0.154
2019-04-06T12:18:50.669Z,0.148
2019-04-06T12:20:49.948Z,0.154
2019-04-06T12:22:51.624Z,0.114
2019-04-06T12:24:50.198Z,0.131
2019-04-06T12:26:50.807Z,0.137
2019-04-06T12:28:50.164Z,0.160
2019-04-06T12:30:50.638Z,0.188
2019-04-06T12:32:50.047Z,0.205
2019-04-06T12:34:50.281Z,0.165
2019-04-06T12:36:50.672Z,0.137
2019-04-06T12:38:49.962Z,0.120
2019-04-06T12:40:50.453Z,0.103
2019-04-06T12:42:51.016Z,0.125
2019-04-06T12:44:50.277Z,0.114
2019-04-06T12:46:50.073Z,0.160
2019-04-06T12:48:53.676Z,0.017
2019-04-06T12:50:50.015Z,0.000
2019-04-06T12:52:50.715Z,0.000
2019-04-06T12:54:50.196Z,0.000
2019-04-06T12:56:50.837Z,0.000
2019-04-06T12:58:50.102Z,0.000
2019-04-06T13:00:54.692Z,0.137
2019-04-06T13:02:49.965Z,0.006
2019-04-06T13:04:50.569Z,0.148
2019-04-06T13:06:50.442Z,0.148
2019-04-06T13:08:50.681Z,0.171
2019-04-06T13:10:50.079Z,0.165
2019-04-06T13:12:50.423Z,0.177
2019-04-06T13:14:50.386Z,0.131
2019-04-06T13:16:49.855Z,0.160
2019-04-06T13:18:50.994Z,0.205
2019-04-06T13:20:50.680Z,0.114
2019-04-06T13:22:50.793Z,0.000
2019-04-06T13:24:50.506Z,0.000
2019-04-06T13:26:49.936Z,0.000
2019-04-06T13:28:50.625Z,0.000
2019-04-06T13:31:05.153Z,0.000
2019-04-06T13:32:50.017Z,0.000
2019-04-06T13:34:50.541Z,0.177
2019-04-06T13:36:50.177Z,0.160
2019-04-06T13:38:50.470Z,0.125
2019-04-06T13:40:50.741Z,0.108
2019-04-06T13:42:49.894Z,0.171
2019-04-06T13:44:50.171Z,0.000
2019-04-06T13:46:50.790Z,0.000
2019-04-06T13:48:50.395Z,0.000
2019-04-06T13:50:50.823Z,0.000
2019-04-06T13:52:50.595Z,0.000
2019-04-06T13:54:51.059Z,0.000
2019-04-06T13:56:50.396Z,0.000
2019-04-06T13:58:51.643Z,0.000
2019-04-06T14:00:49.990Z,0.000
2019-04-06T14:02:50.652Z,0.000
2019-04-06T14:04:50.516Z,0.000
2019-04-06T14:06:49.919Z,0.000
2019-04-06T14:08:50.183Z,0.000
2019-04-06T14:10:50.452Z,0.000
2019-04-06T14:12:50.762Z,0.000
2019-04-06T14:14:50.342Z,0.000
2019-04-06T14:16:49.877Z,0.000
2019-04-06T14:18:50.159Z,0.000
2019-04-06T14:20:50.417Z,0.000
2019-04-06T14:22:51.074Z,0.000
2019-04-06T14:24:51.014Z,0.000
2019-04-06T14:26:49.903Z,0.000
2019-04-06T14:28:50.526Z,0.000
2019-04-06T14:30:50.769Z,0.000
2019-04-06T14:32:50.036Z,0.000
2019-04-06T14:34:50.650Z,0.000
2019-04-06T14:36:50.123Z,0.000
2019-04-06T14:38:50.707Z,0.000
2019-04-06T14:40:50.427Z,0.000
2019-04-06T14:42:49.810Z,0.000
2019-04-06T14:44:51.164Z,0.000
2019-04-06T14:46:51.087Z,0.000
2019-04-06T14:48:50.375Z,0.000
2019-04-06T14:50:50.694Z,0.000
2019-04-06T14:52:50.040Z,0.000
2019-04-06T14:54:50.397Z,0.000
2019-04-06T14:56:49.996Z,0.000
2019-04-06T14:58:50.045Z,0.000
2019-04-06T15:00:51.170Z,0.000
2019-04-06T15:02:49.898Z,0.000
2019-04-06T15:04:50.783Z,0.000
2019-04-06T15:06:50.883Z,0.000
2019-04-06T15:08:50.917Z,0.000
2019-04-06T15:10:50.238Z,0.131
2019-04-06T15:12:50.566Z,0.131
2019-04-06T15:14:50.867Z,0.165
2019-04-06T15:16:50.682Z,0.131
2019-04-06T15:18:50.621Z,0.114
2019-04-06T15:20:50.733Z,0.154
2019-04-06T15:22:50.382Z,0.171
2019-04-06T15:24:50.770Z,0.137
2019-04-06T15:26:50.289Z,0.154
2019-04-06T15:28:50.507Z,0.091
2019-04-06T15:30:50.807Z,0.143
2019-04-06T15:32:50.945Z,0.200
2019-04-06T15:34:51.587Z,0.200
2019-04-06T15:36:50.081Z,0.148
2019-04-06T15:38:50.663Z,0.171
2019-04-06T15:40:50.491Z,0.177
2019-04-06T15:42:51.361Z,0.171
2019-04-06T15:44:50.740Z,0.177
2019-04-06T15:46:50.786Z,0.103
2019-04-06T15:48:50.159Z,0.137
2019-04-06T15:50:50.445Z,0.137
2019-04-06T15:52:51.332Z,0.114
2019-04-06T15:54:50.807Z,0.160
2019-04-06T15:56:50.728Z,0.188
2019-04-06T15:58:49.897Z,0.148
2019-04-06T16:00:51.000Z,0.177
2019-04-06T16:02:50.218Z,0.194
2019-04-06T16:04:49.946Z,0.182
2019-04-06T16:06:50.769Z,0.182
